createdAt,value
2019-04-22T04:21:32.903Z,92.00
2019-04-22T04:22:56.163Z,100.00
2019-04-22T04:23:49.742Z,112.00
2019-04-22T04:24:48.006Z,124.00
2019-04-22T04:25:48.192Z,136.00
2019-04-22T04:26:48.163Z,148.00
2019-04-22T04:33:05.159Z,248.00
2019-04-22T04:46:45.186Z,1320.00
2019-04-22T04:47:44.021Z,1296.00
2019-04-22T04:50:55.722Z,1208.00
2019-04-22T04:55:49.135Z,3412.00
2019-04-22T04:58:37.168Z,2584.00
2019-04-22T05:05:14.409Z,2556.00
2019-04-22T05:10:41.209Z,3148.00
2019-04-22T05:11:34.992Z,2784.00
2019-04-22T05:14:24.692Z,3764.00
2019-04-22T05:15:27.590Z,2868.00
2019-04-22T05:16:36.123Z,3692.00
2019-04-22T05:17:25.806Z,3768.00
2019-04-22T05:18:24.069Z,3156.00
2019-04-22T05:19:36.100Z,4268.00
2019-04-22T05:24:19.889Z,3376.00
2019-04-22T05:25:13.102Z,3304.00
2019-04-22T05:26:10.745Z,3396.00
2019-04-22T05:28:11.703Z,4028.00
2019-04-22T05:29:09.633Z,3944.00
2019-04-22T05:30:23.715Z,3392.00
2019-04-22T05:31:16.083Z,3528.00
2019-04-22T05:32:09.171Z,3100.00
2019-04-22T05:33:07.430Z,2964.00
2019-04-22T05:34:08.501Z,3212.00
2019-04-22T05:36:13.257Z,2960.00
2019-04-22T05:37:07.138Z,3184.00
2019-04-22T05:38:22.140Z,3348.00
2019-04-22T05:39:14.390Z,4260.00
2019-04-22T05:40:16.320Z,4576.00
2019-04-22T05:41:09.130Z,3560.00
2019-04-22T05:42:10.362Z,3184.00
2019-04-22T05:43:09.393Z,3184.00
2019-04-22T05:44:08.195Z,3256.00
2019-04-22T05:46:09.633Z,4592.00
2019-04-22T05:47:08.060Z,3892.00
2019-04-22T05:48:10.929Z,3624.00
2019-04-22T05:49:14.988Z,4252.00
2019-04-22T05:50:07.869Z,5348.00
2019-04-22T05:51:10.103Z,4956.00
2019-04-22T05:52:12.581Z,5016.00
2019-04-22T05:53:07.084Z,6976.00
2019-04-22T05:55:16.102Z,5508.00
2019-04-22T05:56:15.513Z,4244.00
2019-04-22T05:57:14.585Z,3648.00
2019-04-22T05:58:09.987Z,3488.00
2019-04-22T05:59:15.895Z,3480.00
2019-04-22T06:00:18.367Z,3540.00
2019-04-22T06:02:11.136Z,4004.00
2019-04-22T06:03:21.093Z,4104.00
2019-04-22T06:04:11.609Z,4548.00
2019-04-22T06:05:10.145Z,6364.00
2019-04-22T06:06:09.281Z,6764.00
2019-04-22T06:07:06.251Z,5960.00
2019-04-22T06:08:11.868Z,4916.00
2019-04-22T06:09:12.616Z,4568.00
2019-04-22T06:10:14.370Z,4320.00
2019-04-22T06:11:16.725Z,4136.00
2019-04-22T06:12:07.392Z,4024.00
2019-04-22T06:13:04.718Z,3932.00
2019-04-22T06:14:07.836Z,3808.00
2019-04-22T06:15:16.328Z,3704.00
2019-04-22T06:16:15.689Z,3624.00
2019-04-22T06:17:10.734Z,3544.00
2019-04-22T06:18:16.293Z,3548.00
2019-04-22T06:19:14.352Z,3504.00
2019-04-22T06:20:09.439Z,3628.00
2019-04-22T06:21:11.199Z,3612.00
2019-04-22T06:22:13.098Z,3528.00
2019-04-22T06:23:12.825Z,3620.00
2019-04-22T06:24:18.527Z,3644.00
2019-04-22T06:28:26.749Z,4436.00
2019-04-22T06:30:19.053Z,4988.00
2019-04-22T06:31:23.020Z,5456.00
2019-04-22T06:33:17.098Z,6312.00
2019-04-22T06:35:18.498Z,6584.00
2019-04-22T06:36:08.592Z,7032.00
2019-04-22T06:37:13.067Z,7328.00
2019-04-22T06:39:14.544Z,8920.00
2019-04-22T06:40:16.382Z,8944.00
2019-04-22T06:41:13.704Z,8424.00
2019-04-22T06:42:18.030Z,7636.00
2019-04-22T06:43:16.071Z,7312.00
2019-04-22T06:44:18.722Z,6824.00
2019-04-22T06:45:17.550Z,6872.00
2019-04-22T06:46:14.689Z,6692.00
2019-04-22T06:47:25.250Z,6320.00
2019-04-22T06:48:12.807Z,6472.00
2019-04-22T06:49:11.108Z,6824.00
2019-04-22T06:50:31.487Z,6984.00
2019-04-22T06:51:18.393Z,7452.00
2019-04-22T06:52:17.051Z,7924.00
2019-04-22T06:53:09.296Z,9084.00
2019-04-22T06:54:14.129Z,9500.00
2019-04-22T06:55:33.291Z,8960.00
2019-04-22T06:56:12.499Z,9872.00
2019-04-22T06:57:25.542Z,10396.00
2019-04-22T06:58:10.369Z,9600.00
2019-04-22T06:59:11.802Z,8352.00
2019-04-22T07:00:10.677Z,8576.00
2019-04-22T07:01:19.320Z,9256.00
2019-04-22T07:03:30.388Z,10140.00
2019-04-22T07:04:14.101Z,10388.00
2019-04-22T07:05:23.358Z,10332.00
2019-04-22T07:06:12.745Z,10224.00
2019-04-22T07:07:12.258Z,10376.00
2019-04-22T07:08:30.480Z,10040.00
2019-04-22T07:10:26.831Z,9612.00
2019-04-22T07:11:06.253Z,9656.00
2019-04-22T07:12:11.678Z,9484.00
2019-04-22T07:13:01.154Z,9072.00
2019-04-22T07:14:12.288Z,8688.00
2019-04-22T07:15:03.037Z,8432.00
2019-04-22T07:16:11.566Z,8300.00
2019-04-22T07:17:23.202Z,8060.00
2019-04-22T07:19:21.883Z,7880.00
2019-04-22T07:21:12.616Z,7928.00
2019-04-22T07:22:18.156Z,7912.00
2019-04-22T07:23:21.420Z,7872.00
2019-04-22T07:24:34.280Z,7936.00
2019-04-22T07:25:32.747Z,7852.00
2019-04-22T07:26:16.223Z,7892.00
2019-04-22T07:27:22.220Z,7860.00
2019-04-22T07:29:21.819Z,7764.00
2019-04-22T07:30:23.546Z,7740.00
2019-04-22T07:31:42.782Z,7704.00
2019-04-22T07:32:31.059Z,7640.00
2019-04-22T07:33:28.123Z,7524.00
2019-04-22T07:34:31.080Z,7468.00
2019-04-22T07:36:44.479Z,7288.00
2019-04-22T07:38:26.670Z,7112.00
2019-04-22T07:40:28.776Z,7080.00
2019-04-22T07:41:27.446Z,7056.00
2019-04-22T07:42:27.881Z,7072.00
2019-04-22T07:45:32.482Z,6864.00
2019-04-22T07:46:39.154Z,6832.00
2019-04-22T07:47:40.972Z,6612.00
2019-04-22T07:49:39.003Z,6344.00
2019-04-22T07:51:36.658Z,6388.00
2019-04-22T07:52:35.398Z,6448.00
2019-04-22T07:53:37.417Z,6000.00
2019-04-22T07:54:34.654Z,5072.00
2019-04-22T07:55:32.549Z,4536.00
2019-04-22T07:56:43.942Z,4316.00
2019-04-22T07:58:40.179Z,4056.00
2019-04-22T07:59:40.543Z,3984.00
2019-04-22T08:00:40.153Z,3964.00
2019-04-22T08:01:35.557Z,3940.00
2019-04-22T08:02:44.285Z,3916.00
2019-04-22T08:03:44.329Z,3908.00
2019-04-22T08:04:54.795Z,3884.00
2019-04-22T08:05:47.697Z,3872.00
2019-04-22T08:06:46.394Z,3836.00
2019-04-22T08:07:36.048Z,3812.00
2019-04-22T08:08:38.804Z,3792.00
2019-04-22T08:09:44.598Z,3776.00
2019-04-22T08:10:43.084Z,3760.00
2019-04-22T08:12:47.477Z,3736.00
2019-04-22T08:13:42.507Z,3712.00
2019-04-22T08:14:40.713Z,3692.00
2019-04-22T08:15:40.345Z,3680.00
2019-04-22T08:16:43.934Z,3684.00
2019-04-22T08:19:00.712Z,3652.00
2019-04-22T08:19:43.101Z,3648.00
2019-04-22T08:20:41.450Z,3640.00
2019-04-22T08:21:36.305Z,3616.00
2019-04-22T08:22:29.576Z,3616.00
2019-04-22T08:23:42.730Z,3604.00
2019-04-22T08:24:41.772Z,3600.00
2019-04-22T08:25:38.887Z,3592.00
2019-04-22T08:26:41.435Z,3592.00
2019-04-22T08:27:35.504Z,3584.00
2019-04-22T08:29:03.422Z,3568.00
2019-04-22T08:29:46.970Z,3560.00
2019-04-22T08:30:41.467Z,3564.00
2019-04-22T08:31:40.050Z,3568.00
2019-04-22T08:32:44.069Z,3552.00
2019-04-22T08:33:43.546Z,3548.00
2019-04-22T08:34:40.811Z,3552.00
2019-04-22T08:35:52.466Z,3540.00
2019-04-22T08:38:46.963Z,3536.00
2019-04-22T08:39:39.149Z,3528.00
2019-04-22T08:40:41.808Z,3520.00
2019-04-22T08:43:51.422Z,3516.00
2019-04-22T08:44:58.305Z,3512.00
2019-04-22T08:45:46.151Z,3504.00
2019-04-22T08:46:40.503Z,3512.00
2019-04-22T08:48:36.708Z,3496.00
2019-04-22T08:49:42.488Z,3476.00
2019-04-22T08:50:38.883Z,3480.00
2019-04-22T08:51:37.706Z,3476.00
2019-04-22T08:52:42.163Z,3464.00
2019-04-22T08:53:57.352Z,3460.00
2019-04-22T08:56:06.919Z,3440.00
2019-04-22T08:56:56.888Z,3428.00
2019-04-22T08:58:18.511Z,3428.00
2019-04-22T08:59:07.054Z,3428.00
2019-04-22T08:59:50.037Z,3432.00
2019-04-22T09:01:06.514Z,3428.00
2019-04-22T09:01:59.369Z,3428.00
2019-04-22T09:03:00.170Z,3424.00
2019-04-22T09:03:58.581Z,3432.00
2019-04-22T09:04:53.785Z,3436.00
2019-04-22T09:07:18.313Z,3440.00
2019-04-22T09:08:05.877Z,3440.00
2019-04-22T09:09:01.999Z,3480.00
2019-04-22T09:09:55.418Z,3444.00
2019-04-22T09:10:57.057Z,3452.00
2019-04-22T09:12:04.411Z,3448.00
2019-04-22T09:13:02.469Z,3452.00
2019-04-22T09:14:49.534Z,3440.00
2019-04-22T09:15:55.598Z,3436.00
2019-04-22T09:16:56.118Z,3440.00
2019-04-22T09:18:02.290Z,3432.00
2019-04-22T09:19:03.215Z,3436.00
2019-04-22T09:19:59.997Z,3436.00
2019-04-22T09:21:08.748Z,3440.00
2019-04-22T09:22:03.404Z,3440.00
2019-04-22T09:23:04.000Z,3416.00
2019-04-22T09:24:00.444Z,3432.00
2019-04-22T09:25:03.707Z,3428.00
2019-04-22T09:26:09.430Z,3432.00
2019-04-22T09:28:03.322Z,3448.00
2019-04-22T09:29:05.092Z,3428.00
2019-04-22T09:30:09.844Z,3444.00
2019-04-22T09:31:06.355Z,3424.00
2019-04-22T09:32:05.612Z,3420.00
2019-04-22T09:33:08.222Z,3396.00
2019-04-22T09:33:59.014Z,3372.00
2019-04-22T09:35:09.967Z,3368.00
